Bangkok Bridge — 3FTZ8 — position and weather

sailwx.info

Track history (hours):
 
Tides and Currents Weather Stations Pressure Air Temp Water Temp Dewpoint Dewpoint Depression Visibility Wind Speed Wind Dir Waves Ship Positions

Bangkok Bridge

Last reported at 2016-Sep-22 00:27 UTC. Time now 2016-Sep-29 00:00 UTC.
Position N 29°38' E 122°34'.

Length 267 m; draft 11.8 m.

Type: Ship (hazmat cat A). MMSI: 353368000.

Date/timePositionNaut miles runAvg speedWind from/ knotsBaromVisibWave heightAir tempDewpointWater temp
2016-Sep-22 00:27N 29°38' E 122°34'1516.3
2016-Sep-21 23:33N 29°45' E 122°19'1010.3
2016-Sep-21 22:33N 29°49' E 122°09'8 2.5
2016-Sep-21 19:16N 29°46' E 122°00'25 1.6
2016-Sep-21 03:33N 29°41' E 122°28'11010.9
2016-Sep-20 17:33N 31°21' E 121°38'3 0.8
2016-Sep-20 14:16N 31°22' E 121°35'0 0.0
2016-Sep-20 13:16N 31°22' E 121°35'0 0.0
2016-Sep-20 10:28N 31°22' E 121°35'0 0.0
2016-Sep-20 08:28N 31°22' E 121°35'0 0.0
2016-Sep-20 07:22N 31°22' E 121°35'0 0.0
2016-Sep-20 06:16N 31°22' E 121°35'12 3.2
2016-Sep-20 02:31N 31°17' E 121°48'  
2016-Sep-12 13:26N 34°09' E 134°57'1415.4
2016-Sep-12 12:33N 34°22' E 134°60'2020.3
2016-Sep-12 11:33N 34°35' E 135°18'7 6.8
2016-Sep-12 10:31N 34°39' E 135°26'0 0.0
2016-Sep-12 07:19N 34°39' E 135°26'0 0.3
2016-Sep-12 06:33N 34°39' E 135°25'3913.1
2016-Sep-12 03:33N 34°05' E 135°00'9 4.5
2016-Sep-12 01:33N 33°56' E 134°60'  
Track history (hours):
 
Tides and Currents Weather Stations Pressure Air Temp Water Temp Dewpoint Dewpoint Depression Visibility Wind Speed Wind Dir Waves Ship Positions

Bangkok Bridge

Last reported at 2016-Sep-22 00:27 UTC. Time now 2016-Sep-29 00:00 UTC.
Position N 29°38' E 122°34'.

Length 267 m; draft 11.8 m.

Type: Ship (hazmat cat A). MMSI: 353368000.

Date/timePositionNaut miles runAvg speedWind from/ knotsBaromVisibWave heightAir tempDewpointWater temp
2016-Sep-22 00:27N 29°38' E 122°34'1516.3
2016-Sep-21 23:33N 29°45' E 122°19'1010.3
2016-Sep-21 22:33N 29°49' E 122°09'8 2.5
2016-Sep-21 19:16N 29°46' E 122°00'25 1.6
2016-Sep-21 03:33N 29°41' E 122°28'11010.9
2016-Sep-20 17:33N 31°21' E 121°38'3 0.8
2016-Sep-20 14:16N 31°22' E 121°35'0 0.0
2016-Sep-20 13:16N 31°22' E 121°35'0 0.0
2016-Sep-20 10:28N 31°22' E 121°35'0 0.0
2016-Sep-20 08:28N 31°22' E 121°35'0 0.0
2016-Sep-20 07:22N 31°22' E 121°35'0 0.0
2016-Sep-20 06:16N 31°22' E 121°35'12 3.2
2016-Sep-20 02:31N 31°17' E 121°48'  
2016-Sep-12 13:26N 34°09' E 134°57'1415.4
2016-Sep-12 12:33N 34°22' E 134°60'2020.3
2016-Sep-12 11:33N 34°35' E 135°18'7 6.8
2016-Sep-12 10:31N 34°39' E 135°26'0 0.0
2016-Sep-12 07:19N 34°39' E 135°26'0 0.3
2016-Sep-12 06:33N 34°39' E 135°25'3913.1
2016-Sep-12 03:33N 34°05' E 135°00'9 4.5
2016-Sep-12 01:33N 33°56' E 134°60'  

Dump ship's entire track history